sensor_id;sensor_type;location;lat;lon;timestamp;P1;durP1;ratioP1;P2;durP2;ratioP2
66472;SDS011;66089;50.000;10.502;2022-12-16T06:39:41;5.35;;;2.35;;
66472;SDS011;66089;50.000;10.502;2022-12-16T06:42:25;4.60;;;1.98;;
66472;SDS011;66089;50.000;10.502;2022-12-16T06:45:22;6.15;;;1.75;;
66472;SDS011;66089;50.000;10.502;2022-12-16T06:48:07;6.53;;;1.80;;
66472;SDS011;66089;50.000;10.502;2022-12-16T06:50:51;5.57;;;2.15;;
66472;SDS011;66089;50.000;10.502;2022-12-16T06:53:35;6.45;;;3.10;;
66472;SDS011;66089;50.000;10.502;2022-12-16T06:56:19;6.88;;;2.50;;
66472;SDS011;66089;50.000;10.502;2022-12-16T06:59:03;6.65;;;2.40;;
66472;SDS011;66089;50.000;10.502;2022-12-16T07:01:47;5.43;;;2.55;;
66472;SDS011;66089;50.000;10.502;2022-12-16T07:04:31;5.50;;;2.33;;
66472;SDS011;66089;50.000;10.502;2022-12-16T07:07:15;7.07;;;2.38;;
66472;SDS011;66089;50.000;10.502;2022-12-16T07:09:58;6.57;;;2.65;;
66472;SDS011;66089;50.000;10.502;2022-12-16T07:12:42;5.72;;;2.55;;
66472;SDS011;66089;50.000;10.502;2022-12-16T07:15:26;6.60;;;3.45;;
66472;SDS011;66089;50.000;10.502;2022-12-16T07:18:10;7.97;;;2.40;;
66472;SDS011;66089;50.000;10.502;2022-12-16T07:20:54;5.78;;;2.55;;
66472;SDS011;66089;50.000;10.502;2022-12-16T07:23:38;5.93;;;2.83;;
66472;SDS011;66089;50.000;10.502;2022-12-16T07:26:22;7.45;;;2.47;;
66472;SDS011;66089;50.000;10.502;2022-12-16T07:29:06;9.73;;;2.55;;
66472;SDS011;66089;50.000;10.502;2022-12-16T07:31:50;7.30;;;3.28;;
66472;SDS011;66089;50.000;10.502;2022-12-16T07:34:34;7.55;;;3.63;;
66472;SDS011;66089;50.000;10.502;2022-12-16T07:37:18;5.63;;;3.47;;
66472;SDS011;66089;50.000;10.502;2022-12-16T07:40:02;6.05;;;2.72;;
66472;SDS011;66089;50.000;10.502;2022-12-16T07:42:46;6.85;;;2.20;;
66472;SDS011;66089;50.000;10.502;2022-12-16T07:45:30;6.97;;;2.60;;
66472;SDS011;66089;50.000;10.502;2022-12-16T07:48:14;6.72;;;3.47;;
66472;SDS011;66089;50.000;10.502;2022-12-16T07:50:58;5.60;;;2.20;;
66472;SDS011;66089;50.000;10.502;2022-12-16T07:53:42;6.90;;;2.50;;
66472;SDS011;66089;50.000;10.502;2022-12-16T07:56:26;7.80;;;2.92;;
66472;SDS011;66089;50.000;10.502;2022-12-16T07:59:09;10.02;;;2.70;;
66472;SDS011;66089;50.000;10.502;2022-12-16T08:01:53;6.63;;;3.30;;
66472;SDS011;66089;50.000;10.502;2022-12-16T08:04:37;6.60;;;2.88;;
66472;SDS011;66089;50.000;10.502;2022-12-16T08:07:21;7.20;;;2.83;;
66472;SDS011;66089;50.000;10.502;2022-12-16T08:10:05;8.73;;;3.40;;
66472;SDS011;66089;50.000;10.502;2022-12-16T08:12:49;5.47;;;2.67;;
66472;SDS011;66089;50.000;10.502;2022-12-16T08:15:33;7.40;;;3.00;;
66472;SDS011;66089;50.000;10.502;2022-12-16T08:18:17;7.25;;;2.70;;
66472;SDS011;66089;50.000;10.502;2022-12-16T08:21:01;6.60;;;2.38;;
66472;SDS011;66089;50.000;10.502;2022-12-16T08:23:45;6.57;;;3.20;;
66472;SDS011;66089;50.000;10.502;2022-12-16T08:26:28;7.05;;;2.85;;
66472;SDS011;66089;50.000;10.502;2022-12-16T08:29:12;8.52;;;2.90;;
66472;SDS011;66089;50.000;10.502;2022-12-16T08:31:56;10.55;;;3.40;;
66472;SDS011;66089;50.000;10.502;2022-12-16T08:34:40;9.77;;;3.13;;
66472;SDS011;66089;50.000;10.502;2022-12-16T08:37:24;5.32;;;2.58;;
66472;SDS011;66089;50.000;10.502;2022-12-16T08:40:08;6.85;;;2.53;;
66472;SDS011;66089;50.000;10.502;2022-12-16T08:42:54;7.05;;;2.88;;
66472;SDS011;66089;50.000;10.502;2022-12-16T08:45:39;7.78;;;3.42;;
66472;SDS011;66089;50.000;10.502;2022-12-16T08:48:23;7.63;;;3.03;;
66472;SDS011;66089;50.000;10.502;2022-12-16T08:51:07;7.40;;;3.42;;
66472;SDS011;66089;50.000;10.502;2022-12-16T08:53:51;8.32;;;2.90;;
66472;SDS011;66089;50.000;10.502;2022-12-16T08:56:35;9.00;;;3.05;;
66472;SDS011;66089;50.000;10.502;2022-12-16T08:59:19;7.30;;;3.35;;
66472;SDS011;66089;50.000;10.502;2022-12-16T09:02:03;7.25;;;3.17;;
66472;SDS011;66089;50.000;10.502;2022-12-16T09:04:47;7.60;;;3.42;;
66472;SDS011;66089;50.000;10.502;2022-12-16T09:07:31;7.72;;;3.65;;
66472;SDS011;66089;50.000;10.502;2022-12-16T09:10:15;7.95;;;3.20;;
66472;SDS011;66089;50.000;10.502;2022-12-16T09:13:10;9.80;;;4.43;;
66472;SDS011;66089;50.000;10.502;2022-12-16T09:15:56;9.02;;;3.72;;
66472;SDS011;66089;50.000;10.502;2022-12-16T09:18:40;8.70;;;3.72;;
66472;SDS011;66089;50.000;10.502;2022-12-16T09:21:24;8.85;;;4.18;;
66472;SDS011;66089;50.000;10.502;2022-12-16T09:24:08;9.68;;;3.75;;
66472;SDS011;66089;50.000;10.502;2022-12-16T09:26:52;7.22;;;3.40;;
66472;SDS011;66089;50.000;10.502;2022-12-16T09:29:36;10.02;;;4.38;;
66472;SDS011;66089;50.000;10.502;2022-12-16T09:32:20;9.38;;;3.50;;
66472;SDS011;66089;50.000;10.502;2022-12-16T09:35:04;8.18;;;4.10;;
66472;SDS011;66089;50.000;10.502;2022-12-16T09:37:48;9.68;;;4.03;;
66472;SDS011;66089;50.000;10.502;2022-12-16T09:40:32;8.43;;;3.58;;
66472;SDS011;66089;50.000;10.502;2022-12-16T09:46:31;9.35;;;3.28;;
66472;SDS011;66089;50.000;10.502;2022-12-16T09:52:14;9.77;;;4.47;;
66472;SDS011;66089;50.000;10.502;2022-12-16T09:55:07;8.38;;;4.20;;
66472;SDS011;66089;50.000;10.502;2022-12-16T09:58:02;12.27;;;4.75;;
66472;SDS011;66089;50.000;10.502;2022-12-16T10:00:47;11.68;;;4.35;;
66472;SDS011;66089;50.000;10.502;2022-12-16T10:03:38;12.15;;;4.55;;
66472;SDS011;66089;50.000;10.502;2022-12-16T10:06:28;13.65;;;5.35;;
66472;SDS011;66089;50.000;10.502;2022-12-16T10:19:16;15.75;;;5.78;;
66472;SDS011;66089;50.000;10.502;2022-12-16T10:22:20;10.85;;;4.05;;
66472;SDS011;66089;50.000;10.502;2022-12-16T10:28:23;8.60;;;3.65;;
66472;SDS011;66089;50.000;10.502;2022-12-16T10:31:21;9.68;;;5.22;;
66472;SDS011;66089;50.000;10.502;2022-12-16T10:34:15;8.55;;;4.35;;
66472;SDS011;66089;50.000;10.502;2022-12-16T10:37:03;7.93;;;4.05;;
66472;SDS011;66089;50.000;10.502;2022-12-16T10:39:52;9.40;;;4.18;;
66472;SDS011;66089;50.000;10.502;2022-12-16T10:42:46;9.00;;;3.80;;
66472;SDS011;66089;50.000;10.502;2022-12-16T10:45:39;9.75;;;4.50;;
66472;SDS011;66089;50.000;10.502;2022-12-16T10:51:12;10.68;;;4.88;;
66472;SDS011;66089;50.000;10.502;2022-12-16T10:54:00;11.35;;;4.82;;
66472;SDS011;66089;50.000;10.502;2022-12-16T11:00:15;10.60;;;4.47;;
66472;SDS011;66089;50.000;10.502;2022-12-16T11:03:20;8.95;;;3.70;;
66472;SDS011;66089;50.000;10.502;2022-12-16T11:06:06;10.13;;;4.15;;
66472;SDS011;66089;50.000;10.502;2022-12-16T11:08:51;9.32;;;4.32;;
66472;SDS011;66089;50.000;10.502;2022-12-16T11:11:35;10.05;;;4.13;;
66472;SDS011;66089;50.000;10.502;2022-12-16T11:17:14;10.65;;;4.70;;
66472;SDS011;66089;50.000;10.502;2022-12-16T11:20:11;8.25;;;3.58;;
66472;SDS011;66089;50.000;10.502;2022-12-16T11:31:50;8.55;;;3.92;;
66472;SDS011;66089;50.000;10.502;2022-12-16T11:34:57;9.45;;;4.10;;
66472;SDS011;66089;50.000;10.502;2022-12-16T11:37:42;9.93;;;4.35;;
66472;SDS011;66089;50.000;10.502;2022-12-16T11:40:28;10.40;;;4.32;;
66472;SDS011;66089;50.000;10.502;2022-12-16T11:43:14;10.30;;;4.45;;
66472;SDS011;66089;50.000;10.502;2022-12-16T11:46:00;8.85;;;4.25;;
66472;SDS011;66089;50.000;10.502;2022-12-16T11:48:49;8.57;;;3.72;;
66472;SDS011;66089;50.000;10.502;2022-12-16T11:51:37;8.88;;;4.53;;
66472;SDS011;66089;50.000;10.502;2022-12-16T11:54:26;9.00;;;4.43;;
66472;SDS011;66089;50.000;10.502;2022-12-16T11:57:38;8.30;;;4.03;;
66472;SDS011;66089;50.000;10.502;2022-12-16T12:00:26;8.85;;;4.20;;
66472;SDS011;66089;50.000;10.502;2022-12-16T12:03:11;8.45;;;4.53;;
66472;SDS011;66089;50.000;10.502;2022-12-16T12:06:04;8.45;;;4.43;;
66472;SDS011;66089;50.000;10.502;2022-12-16T12:11:45;8.77;;;4.47;;
66472;SDS011;66089;50.000;10.502;2022-12-16T12:17:46;8.63;;;4.15;;
66472;SDS011;66089;50.000;10.502;2022-12-16T12:30:04;8.95;;;4.18;;
66472;SDS011;66089;50.000;10.502;2022-12-16T12:36:05;10.10;;;4.80;;
66472;SDS011;66089;50.000;10.502;2022-12-16T12:42:01;9.50;;;3.97;;
66472;SDS011;66089;50.000;10.502;2022-12-16T12:45:00;9.73;;;4.60;;
66472;SDS011;66089;50.000;10.502;2022-12-16T12:48:02;10.98;;;4.20;;
66472;SDS011;66089;50.000;10.502;2022-12-16T12:56:58;10.52;;;3.72;;
66472;SDS011;66089;50.000;10.502;2022-12-16T12:59:54;8.05;;;4.47;;
66472;SDS011;66089;50.000;10.502;2022-12-16T13:06:05;8.50;;;4.03;;
66472;SDS011;66089;50.000;10.502;2022-12-16T13:11:37;8.27;;;3.72;;
66472;SDS011;66089;50.000;10.502;2022-12-16T13:14:52;10.32;;;3.95;;
66472;SDS011;66089;50.000;10.502;2022-12-16T13:20:46;9.70;;;4.07;;
66472;SDS011;66089;50.000;10.502;2022-12-16T13:23:37;9.27;;;4.07;;
66472;SDS011;66089;50.000;10.502;2022-12-16T13:26:24;10.65;;;4.40;;
66472;SDS011;66089;50.000;10.502;2022-12-16T13:37:55;9.70;;;5.28;;
66472;SDS011;66089;50.000;10.502;2022-12-16T13:40:55;11.15;;;5.18;;
66472;SDS011;66089;50.000;10.502;2022-12-16T13:43:50;10.55;;;4.40;;
66472;SDS011;66089;50.000;10.502;2022-12-16T13:49:59;10.55;;;5.20;;
66472;SDS011;66089;50.000;10.502;2022-12-16T13:55:25;10.35;;;4.38;;
66472;SDS011;66089;50.000;10.502;2022-12-16T13:58:19;9.50;;;4.32;;
66472;SDS011;66089;50.000;10.502;2022-12-16T14:01:32;10.73;;;4.00;;
66472;SDS011;66089;50.000;10.502;2022-12-16T14:04:24;10.60;;;4.15;;
66472;SDS011;66089;50.000;10.502;2022-12-16T14:07:10;9.43;;;3.72;;
66472;SDS011;66089;50.000;10.502;2022-12-16T14:09:54;10.18;;;4.28;;
66472;SDS011;66089;50.000;10.502;2022-12-16T14:13:39;9.10;;;3.97;;
66472;SDS011;66089;50.000;10.502;2022-12-16T14:16:18;9.93;;;3.70;;
66472;SDS011;66089;50.000;10.502;2022-12-16T14:19:12;8.68;;;4.43;;
66472;SDS011;66089;50.000;10.502;2022-12-16T14:25:18;9.43;;;4.38;;
66472;SDS011;66089;50.000;10.502;2022-12-16T14:28:47;9.35;;;4.13;;
66472;SDS011;66089;50.000;10.502;2022-12-16T14:31:17;12.45;;;4.20;;
66472;SDS011;66089;50.000;10.502;2022-12-16T14:34:10;9.88;;;4.07;;
66472;SDS011;66089;50.000;10.502;2022-12-16T14:36:57;11.10;;;5.85;;
66472;SDS011;66089;50.000;10.502;2022-12-16T14:39:41;10.50;;;5.07;;
66472;SDS011;66089;50.000;10.502;2022-12-16T14:42:26;11.85;;;4.68;;
66472;SDS011;66089;50.000;10.502;2022-12-16T14:45:27;10.50;;;4.07;;
66472;SDS011;66089;50.000;10.502;2022-12-16T14:48:13;9.48;;;4.60;;
66472;SDS011;66089;50.000;10.502;2022-12-16T14:57:11;11.07;;;4.45;;
66472;SDS011;66089;50.000;10.502;2022-12-16T15:02:53;10.15;;;4.00;;
66472;SDS011;66089;50.000;10.502;2022-12-16T15:05:40;10.32;;;4.95;;
66472;SDS011;66089;50.000;10.502;2022-12-16T15:08:25;10.35;;;4.55;;
66472;SDS011;66089;50.000;10.502;2022-12-16T15:11:11;12.20;;;5.07;;
66472;SDS011;66089;50.000;10.502;2022-12-16T15:13:59;10.90;;;5.57;;
66472;SDS011;66089;50.000;10.502;2022-12-16T15:16:45;15.05;;;6.80;;
66472;SDS011;66089;50.000;10.502;2022-12-16T15:19:35;11.02;;;5.18;;
66472;SDS011;66089;50.000;10.502;2022-12-16T15:22:24;12.63;;;5.35;;
66472;SDS011;66089;50.000;10.502;2022-12-16T15:25:16;11.57;;;4.90;;
66472;SDS011;66089;50.000;10.502;2022-12-16T15:28:02;12.18;;;4.60;;
66472;SDS011;66089;50.000;10.502;2022-12-16T15:30:46;11.88;;;5.05;;
66472;SDS011;66089;50.000;10.502;2022-12-16T15:33:34;10.48;;;4.95;;
66472;SDS011;66089;50.000;10.502;2022-12-16T15:39:09;9.32;;;4.18;;
66472;SDS011;66089;50.000;10.502;2022-12-16T15:41:59;11.93;;;4.72;;
66472;SDS011;66089;50.000;10.502;2022-12-16T15:44:47;11.70;;;4.68;;
66472;SDS011;66089;50.000;10.502;2022-12-16T15:50:19;11.98;;;4.95;;
66472;SDS011;66089;50.000;10.502;2022-12-16T15:53:16;12.68;;;4.88;;
66472;SDS011;66089;50.000;10.502;2022-12-16T15:56:21;11.73;;;4.40;;
66472;SDS011;66089;50.000;10.502;2022-12-16T15:59:22;9.65;;;4.00;;
66472;SDS011;66089;50.000;10.502;2022-12-16T16:02:17;9.38;;;4.03;;
66472;SDS011;66089;50.000;10.502;2022-12-16T16:05:10;11.63;;;5.10;;
66472;SDS011;66089;50.000;10.502;2022-12-16T16:07:56;7.65;;;3.42;;
66472;SDS011;66089;50.000;10.502;2022-12-16T16:10:41;10.93;;;4.35;;
66472;SDS011;66089;50.000;10.502;2022-12-16T16:13:26;13.30;;;4.22;;
66472;SDS011;66089;50.000;10.502;2022-12-16T16:16:10;11.05;;;4.55;;
66472;SDS011;66089;50.000;10.502;2022-12-16T16:18:55;9.35;;;3.85;;
66472;SDS011;66089;50.000;10.502;2022-12-16T16:21:39;10.00;;;4.53;;
66472;SDS011;66089;50.000;10.502;2022-12-16T16:24:23;11.02;;;4.30;;
66472;SDS011;66089;50.000;10.502;2022-12-16T16:27:07;10.82;;;4.85;;
66472;SDS011;66089;50.000;10.502;2022-12-16T16:29:54;9.80;;;4.22;;
66472;SDS011;66089;50.000;10.502;2022-12-16T16:32:38;10.02;;;4.10;;
66472;SDS011;66089;50.000;10.502;2022-12-16T16:35:22;11.98;;;4.70;;
66472;SDS011;66089;50.000;10.502;2022-12-16T16:38:07;14.07;;;5.38;;
66472;SDS011;66089;50.000;10.502;2022-12-16T16:40:53;13.65;;;5.90;;
66472;SDS011;66089;50.000;10.502;2022-12-16T16:43:37;10.38;;;5.63;;
66472;SDS011;66089;50.000;10.502;2022-12-16T16:46:25;13.07;;;6.10;;
66472;SDS011;66089;50.000;10.502;2022-12-16T16:52:19;10.75;;;5.20;;
66472;SDS011;66089;50.000;10.502;2022-12-16T16:55:13;11.48;;;5.35;;
66472;SDS011;66089;50.000;10.502;2022-12-16T16:58:06;12.82;;;5.32;;
66472;SDS011;66089;50.000;10.502;2022-12-16T17:00:54;12.40;;;5.38;;
66472;SDS011;66089;50.000;10.502;2022-12-16T17:03:38;13.27;;;5.78;;
66472;SDS011;66089;50.000;10.502;2022-12-16T17:06:22;12.52;;;6.90;;
66472;SDS011;66089;50.000;10.502;2022-12-16T17:09:06;13.73;;;5.70;;
66472;SDS011;66089;50.000;10.502;2022-12-16T17:11:50;12.85;;;5.45;;
66472;SDS011;66089;50.000;10.502;2022-12-16T17:14:34;10.90;;;4.80;;
66472;SDS011;66089;50.000;10.502;2022-12-16T17:17:18;11.70;;;5.80;;
66472;SDS011;66089;50.000;10.502;2022-12-16T17:20:02;12.85;;;5.00;;
66472;SDS011;66089;50.000;10.502;2022-12-16T17:22:46;13.38;;;5.40;;
66472;SDS011;66089;50.000;10.502;2022-12-16T17:25:30;12.85;;;4.60;;
66472;SDS011;66089;50.000;10.502;2022-12-16T17:28:14;12.85;;;5.32;;
66472;SDS011;66089;50.000;10.502;2022-12-16T17:30:58;12.40;;;5.18;;
66472;SDS011;66089;50.000;10.502;2022-12-16T17:33:42;11.90;;;5.13;;
66472;SDS011;66089;50.000;10.502;2022-12-16T17:36:26;14.23;;;5.38;;
66472;SDS011;66089;50.000;10.502;2022-12-16T17:39:10;13.77;;;5.25;;
66472;SDS011;66089;50.000;10.502;2022-12-16T17:41:54;12.65;;;4.50;;
66472;SDS011;66089;50.000;10.502;2022-12-16T17:44:38;12.35;;;5.40;;
66472;SDS011;66089;50.000;10.502;2022-12-16T17:47:22;11.13;;;4.90;;
66472;SDS011;66089;50.000;10.502;2022-12-16T17:50:06;11.75;;;4.82;;
66472;SDS011;66089;50.000;10.502;2022-12-16T17:52:56;10.65;;;4.80;;
66472;SDS011;66089;50.000;10.502;2022-12-16T17:55:41;11.75;;;4.78;;
66472;SDS011;66089;50.000;10.502;2022-12-16T17:58:29;10.82;;;4.68;;
66472;SDS011;66089;50.000;10.502;2022-12-16T18:01:14;13.45;;;5.10;;
66472;SDS011;66089;50.000;10.502;2022-12-16T18:03:58;12.75;;;4.47;;
66472;SDS011;66089;50.000;10.502;2022-12-16T18:06:42;11.82;;;4.03;;
66472;SDS011;66089;50.000;10.502;2022-12-16T18:09:26;12.38;;;4.38;;
66472;SDS011;66089;50.000;10.502;2022-12-16T18:12:10;12.00;;;4.53;;
66472;SDS011;66089;50.000;10.502;2022-12-16T18:14:54;12.48;;;4.80;;
66472;SDS011;66089;50.000;10.502;2022-12-16T18:17:38;12.35;;;4.90;;
66472;SDS011;66089;50.000;10.502;2022-12-16T18:20:22;11.23;;;4.85;;
66472;SDS011;66089;50.000;10.502;2022-12-16T18:23:06;12.32;;;5.10;;
66472;SDS011;66089;50.000;10.502;2022-12-16T18:26:00;10.68;;;4.30;;
66472;SDS011;66089;50.000;10.502;2022-12-16T18:28:45;12.20;;;4.15;;
66472;SDS011;66089;50.000;10.502;2022-12-16T18:31:29;12.65;;;5.00;;
66472;SDS011;66089;50.000;10.502;2022-12-16T18:34:13;12.65;;;5.03;;
66472;SDS011;66089;50.000;10.502;2022-12-16T18:36:57;14.18;;;5.32;;
66472;SDS011;66089;50.000;10.502;2022-12-16T18:39:41;12.38;;;4.68;;
66472;SDS011;66089;50.000;10.502;2022-12-16T18:42:25;11.93;;;4.78;;
66472;SDS011;66089;50.000;10.502;2022-12-16T18:45:09;12.52;;;5.07;;
66472;SDS011;66089;50.000;10.502;2022-12-16T18:47:53;11.68;;;4.25;;
66472;SDS011;66089;50.000;10.502;2022-12-16T18:50:37;9.10;;;4.38;;
66472;SDS011;66089;50.000;10.502;2022-12-16T18:53:21;9.65;;;4.32;;
66472;SDS011;66089;50.000;10.502;2022-12-16T18:56:05;14.15;;;5.07;;
66472;SDS011;66089;50.000;10.502;2022-12-16T18:58:51;18.75;;;5.55;;
66472;SDS011;66089;50.000;10.502;2022-12-16T19:01:35;19.30;;;6.57;;
66472;SDS011;66089;50.000;10.502;2022-12-16T19:04:19;12.70;;;4.70;;
66472;SDS011;66089;50.000;10.502;2022-12-16T19:07:03;11.05;;;4.32;;
66472;SDS011;66089;50.000;10.502;2022-12-16T19:09:47;11.30;;;4.30;;
66472;SDS011;66089;50.000;10.502;2022-12-16T19:12:30;11.27;;;4.53;;
66472;SDS011;66089;50.000;10.502;2022-12-16T19:15:15;14.73;;;5.57;;
66472;SDS011;66089;50.000;10.502;2022-12-16T19:17:58;10.98;;;4.97;;
66472;SDS011;66089;50.000;10.502;2022-12-16T19:20:42;9.63;;;4.25;;
66472;SDS011;66089;50.000;10.502;2022-12-16T19:23:26;11.38;;;4.60;;
66472;SDS011;66089;50.000;10.502;2022-12-16T19:26:10;11.05;;;3.80;;
66472;SDS011;66089;50.000;10.502;2022-12-16T19:28:54;11.88;;;4.53;;
66472;SDS011;66089;50.000;10.502;2022-12-16T19:31:38;9.27;;;3.40;;
66472;SDS011;66089;50.000;10.502;2022-12-16T19:34:22;11.15;;;4.38;;
66472;SDS011;66089;50.000;10.502;2022-12-16T19:37:06;8.50;;;3.72;;
66472;SDS011;66089;50.000;10.502;2022-12-16T19:39:50;8.88;;;3.65;;
66472;SDS011;66089;50.000;10.502;2022-12-16T19:42:34;8.93;;;3.58;;
66472;SDS011;66089;50.000;10.502;2022-12-16T19:45:18;11.60;;;4.00;;
66472;SDS011;66089;50.000;10.502;2022-12-16T19:48:03;10.13;;;3.78;;
66472;SDS011;66089;50.000;10.502;2022-12-16T19:50:48;12.00;;;4.32;;
66472;SDS011;66089;50.000;10.502;2022-12-16T19:53:32;11.00;;;5.55;;
66472;SDS011;66089;50.000;10.502;2022-12-16T19:56:16;11.38;;;4.28;;
66472;SDS011;66089;50.000;10.502;2022-12-16T19:59:00;12.63;;;5.32;;
66472;SDS011;66089;50.000;10.502;2022-12-16T20:01:44;10.82;;;5.00;;
66472;SDS011;66089;50.000;10.502;2022-12-16T20:04:28;13.25;;;5.43;;
66472;SDS011;66089;50.000;10.502;2022-12-16T20:07:12;26.92;;;12.93;;
66472;SDS011;66089;50.000;10.502;2022-12-16T20:09:55;17.85;;;8.40;;
66472;SDS011;66089;50.000;10.502;2022-12-16T20:12:39;20.02;;;8.90;;
66472;SDS011;66089;50.000;10.502;2022-12-16T20:15:23;15.60;;;6.00;;
66472;SDS011;66089;50.000;10.502;2022-12-16T20:18:07;13.20;;;5.95;;
66472;SDS011;66089;50.000;10.502;2022-12-16T20:20:51;15.40;;;7.50;;
66472;SDS011;66089;50.000;10.502;2022-12-16T20:23:35;13.85;;;6.80;;
66472;SDS011;66089;50.000;10.502;2022-12-16T20:26:19;19.95;;;8.30;;
66472;SDS011;66089;50.000;10.502;2022-12-16T20:29:10;15.93;;;7.88;;
66472;SDS011;66089;50.000;10.502;2022-12-16T20:31:54;21.25;;;7.60;;
66472;SDS011;66089;50.000;10.502;2022-12-16T20:34:38;17.48;;;8.32;;
66472;SDS011;66089;50.000;10.502;2022-12-16T20:37:22;17.58;;;7.60;;
66472;SDS011;66089;50.000;10.502;2022-12-16T20:40:06;17.05;;;7.88;;
66472;SDS011;66089;50.000;10.502;2022-12-16T20:42:50;14.43;;;6.50;;
66472;SDS011;66089;50.000;10.502;2022-12-16T20:45:34;20.00;;;8.23;;
66472;SDS011;66089;50.000;10.502;2022-12-16T20:48:21;14.63;;;6.85;;
66472;SDS011;66089;50.000;10.502;2022-12-16T20:51:05;15.35;;;5.95;;
66472;SDS011;66089;50.000;10.502;2022-12-16T20:53:49;10.88;;;4.78;;
66472;SDS011;66089;50.000;10.502;2022-12-16T20:56:34;15.85;;;6.10;;
66472;SDS011;66089;50.000;10.502;2022-12-16T20:59:18;14.25;;;5.55;;
66472;SDS011;66089;50.000;10.502;2022-12-16T21:02:02;15.18;;;6.00;;
66472;SDS011;66089;50.000;10.502;2022-12-16T21:04:46;15.75;;;5.55;;
66472;SDS011;66089;50.000;10.502;2022-12-16T21:07:30;12.55;;;5.25;;
66472;SDS011;66089;50.000;10.502;2022-12-16T21:10:14;10.70;;;4.47;;
66472;SDS011;66089;50.000;10.502;2022-12-16T21:13:08;12.15;;;5.43;;
66472;SDS011;66089;50.000;10.502;2022-12-16T21:15:58;11.52;;;5.28;;
66472;SDS011;66089;50.000;10.502;2022-12-16T21:18:53;11.30;;;5.03;;
66472;SDS011;66089;50.000;10.502;2022-12-16T21:21:36;10.07;;;5.38;;
66472;SDS011;66089;50.000;10.502;2022-12-16T21:24:21;12.70;;;4.43;;
66472;SDS011;66089;50.000;10.502;2022-12-16T21:27:04;13.07;;;5.53;;
66472;SDS011;66089;50.000;10.502;2022-12-16T21:29:49;13.32;;;4.93;;
66472;SDS011;66089;50.000;10.502;2022-12-16T21:32:32;11.90;;;4.75;;
66472;SDS011;66089;50.000;10.502;2022-12-16T21:35:17;12.70;;;4.78;;
66472;SDS011;66089;50.000;10.502;2022-12-16T21:38:01;11.38;;;5.57;;
66472;SDS011;66089;50.000;10.502;2022-12-16T21:40:51;9.90;;;5.20;;
66472;SDS011;66089;50.000;10.502;2022-12-16T21:43:36;12.77;;;5.32;;
66472;SDS011;66089;50.000;10.502;2022-12-16T21:46:20;11.43;;;4.60;;
66472;SDS011;66089;50.000;10.502;2022-12-16T21:49:04;13.35;;;5.13;;
66472;SDS011;66089;50.000;10.502;2022-12-16T21:51:48;13.88;;;5.32;;
66472;SDS011;66089;50.000;10.502;2022-12-16T21:54:32;14.55;;;5.47;;
66472;SDS011;66089;50.000;10.502;2022-12-16T21:57:16;11.15;;;4.75;;
66472;SDS011;66089;50.000;10.502;2022-12-16T22:00:00;13.65;;;5.18;;
66472;SDS011;66089;50.000;10.502;2022-12-16T22:02:44;10.90;;;5.03;;
66472;SDS011;66089;50.000;10.502;2022-12-16T22:05:28;12.02;;;4.53;;
66472;SDS011;66089;50.000;10.502;2022-12-16T22:08:12;11.88;;;5.20;;
66472;SDS011;66089;50.000;10.502;2022-12-16T22:10:55;15.68;;;5.28;;
66472;SDS011;66089;50.000;10.502;2022-12-16T22:13:39;14.10;;;5.03;;
66472;SDS011;66089;50.000;10.502;2022-12-16T22:16:23;11.25;;;4.60;;
66472;SDS011;66089;50.000;10.502;2022-12-16T22:19:07;11.73;;;4.97;;
66472;SDS011;66089;50.000;10.502;2022-12-16T22:21:51;9.90;;;4.07;;
66472;SDS011;66089;50.000;10.502;2022-12-16T22:24:35;13.80;;;4.85;;
66472;SDS011;66089;50.000;10.502;2022-12-16T22:27:19;11.75;;;5.40;;
